Time;durP1;ratioP1;P1;durP2;ratioP2;P2;SDS_P1;SDS_P2;PMS_P1;PMS_P2;Temp;Humidity;BMP_temperature;BMP_pressure;BME280_temperature;BME280_humidity;BME280_pressure;Samples;Min_cycle;Max_cycle;Signal;HPM_P1;HPM_P2
2024/01/19 00:00:33;;;;;;;21.90;10.57;;;;;;;;;;5078487;28;20053;-81
2024/01/19 00:03:00;;;;;;;16.85;10.88;;;;;;;;;;5077884;28;20442;-81
2024/01/19 00:05:28;;;;;;;25.33;11.70;;;;;;;;;;5077878;28;20128;-80
2024/01/19 00:07:55;;;;;;;21.27;11.05;;;;;;;;;;5077977;28;20430;-81
2024/01/19 00:10:22;;;;;;;17.95;10.23;;;;;;;;;;5079502;28;20056;-81
2024/01/19 00:12:50;;;;;;;17.45;9.93;;;;;;;;;;5077862;28;20052;-81
2024/01/19 00:15:17;;;;;;;18.13;11.18;;;;;;;;;;5070260;28;20059;-81
2024/01/19 00:17:50;;;;;;;18.08;10.35;;;;;;;;;;5077538;28;20053;-81
2024/01/19 00:20:17;;;;;;;22.63;11.70;;;;;;;;;;5071702;28;20056;-81
2024/01/19 00:22:45;;;;;;;20.35;12.07;;;;;;;;;;5078316;28;20055;-81
2024/01/19 00:25:12;;;;;;;21.92;12.10;;;;;;;;;;5077706;28;20052;-81
2024/01/19 00:27:39;;;;;;;23.20;12.05;;;;;;;;;;5078913;28;20472;-81
2024/01/19 00:30:07;;;;;;;26.15;12.25;;;;;;;;;;5077397;28;20049;-81
2024/01/19 00:32:34;;;;;;;21.15;12.32;;;;;;;;;;5077319;28;20079;-81
2024/01/19 00:35:02;;;;;;;22.55;11.70;;;;;;;;;;5078431;28;20490;-81
2024/01/19 00:37:29;;;;;;;20.48;11.73;;;;;;;;;;5081717;28;20098;-81
2024/01/19 00:39:57;;;;;;;19.92;11.25;;;;;;;;;;5082984;28;20079;-81
2024/01/19 00:42:24;;;;;;;23.15;12.00;;;;;;;;;;5081480;28;20053;-81
2024/01/19 00:44:52;;;;;;;19.52;12.02;;;;;;;;;;5084135;28;20102;-80
2024/01/19 00:47:19;;;;;;;21.55;11.52;;;;;;;;;;5081219;28;20044;-81
2024/01/19 00:49:47;;;;;;;20.38;12.23;;;;;;;;;;5081246;28;20081;-81
2024/01/19 00:52:14;;;;;;;22.13;12.15;;;;;;;;;;5083411;28;20052;-81
2024/01/19 00:54:41;;;;;;;21.08;11.15;;;;;;;;;;5080619;28;20048;-81
2024/01/19 00:57:08;;;;;;;19.13;10.70;;;;;;;;;;5081754;28;20045;-81
2024/01/19 00:59:36;;;;;;;15.10;10.15;;;;;;;;;;5080858;28;20090;-81
2024/01/19 01:02:03;;;;;;;16.95;10.77;;;;;;;;;;5082320;28;20501;-81
2024/01/19 01:04:30;;;;;;;18.75;9.75;;;;;;;;;;5081697;28;20052;-81
2024/01/19 01:06:57;;;;;;;17.77;9.65;;;;;;;;;;5080302;28;20051;-81
2024/01/19 01:09:25;;;;;;;15.10;9.60;;;;;;;;;;5082460;28;20048;-81
2024/01/19 01:11:52;;;;;;;19.67;10.48;;;;;;;;;;5082032;28;20052;-81
2024/01/19 01:14:19;;;;;;;19.10;10.70;;;;;;;;;;5080790;28;20044;-81
2024/01/19 01:16:46;;;;;;;16.95;10.30;;;;;;;;;;5080576;28;20056;-81
2024/01/19 01:19:14;;;;;;;19.77;10.75;;;;;;;;;;5080103;28;20098;-81
2024/01/19 01:21:41;;;;;;;19.38;9.50;;;;;;;;;;5081306;28;20056;-81
2024/01/19 01:24:08;;;;;;;16.92;9.60;;;;;;;;;;5080843;28;20113;-81
2024/01/19 01:26:35;;;;;;;15.98;9.93;;;;;;;;;;5080323;28;20464;-81
2024/01/19 01:29:03;;;;;;;17.35;9.38;;;;;;;;;;5081028;28;20079;-81
2024/01/19 01:31:30;;;;;;;17.58;8.98;;;;;;;;;;5080254;28;20098;-81
2024/01/19 01:33:57;;;;;;;14.32;8.77;;;;;;;;;;5079599;28;20075;-81
2024/01/19 01:36:25;;;;;;;19.35;9.65;;;;;;;;;;5080238;28;20059;-81
2024/01/19 01:38:52;;;;;;;21.13;8.65;;;;;;;;;;5080056;28;20102;-81
2024/01/19 01:41:20;;;;;;;17.95;9.82;;;;;;;;;;5080264;28;20498;-81
2024/01/19 01:43:47;;;;;;;15.68;8.95;;;;;;;;;;5079399;28;20060;-81
2024/01/19 01:46:14;;;;;;;17.50;9.60;;;;;;;;;;5079856;28;20048;-81
2024/01/19 01:48:42;;;;;;;18.42;9.18;;;;;;;;;;5079319;28;20048;-81
2024/01/19 01:51:09;;;;;;;14.40;8.75;;;;;;;;;;5080494;28;20040;-81
2024/01/19 01:53:37;;;;;;;15.65;9.13;;;;;;;;;;5079311;28;20051;-81
2024/01/19 01:56:08;;;;;;;14.88;8.93;;;;;;;;;;5078794;28;20055;-81
2024/01/19 01:58:35;;;;;;;14.02;8.32;;;;;;;;;;5079554;28;20056;-81
2024/01/19 02:01:02;;;;;;;15.02;8.25;;;;;;;;;;5079324;28;20052;-81
2024/01/19 02:03:30;;;;;;;15.82;8.25;;;;;;;;;;5079141;28;20497;-82
2024/01/19 02:05:57;;;;;;;17.60;8.35;;;;;;;;;;5079564;28;20169;-81
2024/01/19 02:08:25;;;;;;;12.65;7.88;;;;;;;;;;5079506;28;20048;-81
2024/01/19 02:10:53;;;;;;;15.35;8.55;;;;;;;;;;5079776;28;20048;-81
2024/01/19 02:13:20;;;;;;;14.57;8.23;;;;;;;;;;5079706;28;20048;-80
2024/01/19 02:15:47;;;;;;;15.02;8.48;;;;;;;;;;5078428;28;20391;-81
2024/01/19 02:18:14;;;;;;;15.05;8.57;;;;;;;;;;5078222;28;20052;-81
2024/01/19 02:20:42;;;;;;;17.75;9.75;;;;;;;;;;5077765;28;20048;-81
2024/01/19 02:23:13;;;;;;;14.27;8.60;;;;;;;;;;5077881;28;20051;-81
2024/01/19 02:25:41;;;;;;;14.82;8.80;;;;;;;;;;5078048;28;20055;-81
2024/01/19 02:28:08;;;;;;;14.25;7.68;;;;;;;;;;5078790;28;20151;-80
2024/01/19 02:30:37;;;;;;;14.15;8.80;;;;;;;;;;5078036;28;20044;-81
2024/01/19 02:33:04;;;;;;;15.00;9.35;;;;;;;;;;5077784;28;20109;-80
2024/01/19 02:35:32;;;;;;;13.40;8.40;;;;;;;;;;5079470;28;20140;-81
2024/01/19 02:37:59;;;;;;;13.57;8.38;;;;;;;;;;5079469;28;20053;-80
2024/01/19 02:40:26;;;;;;;15.00;8.25;;;;;;;;;;5078335;28;20128;-80
2024/01/19 02:42:53;;;;;;;16.25;9.55;;;;;;;;;;5077483;28;20052;-82
2024/01/19 02:45:21;;;;;;;16.60;9.48;;;;;;;;;;5077227;28;20052;-81
2024/01/19 02:47:48;;;;;;;18.00;9.82;;;;;;;;;;5078338;28;20056;-81
2024/01/19 02:50:15;;;;;;;20.70;10.93;;;;;;;;;;5079630;28;20044;-80
2024/01/19 02:52:43;;;;;;;19.10;9.88;;;;;;;;;;5079055;28;20049;-82
2024/01/19 02:55:10;;;;;;;18.23;10.05;;;;;;;;;;5079223;28;20049;-81
2024/01/19 02:57:37;;;;;;;22.20;10.50;;;;;;;;;;5079040;28;20098;-81
2024/01/19 03:00:05;;;;;;;14.98;8.95;;;;;;;;;;5079092;28;20107;-81
2024/01/19 03:02:32;;;;;;;18.92;10.15;;;;;;;;;;5078787;28;20086;-81
2024/01/19 03:05:00;;;;;;;16.88;9.93;;;;;;;;;;5078558;28;20052;-81
2024/01/19 03:07:27;;;;;;;16.52;9.15;;;;;;;;;;5078116;28;20052;-82
2024/01/19 03:09:54;;;;;;;21.20;11.43;;;;;;;;;;5078405;28;20045;-81
2024/01/19 03:12:22;;;;;;;25.98;13.15;;;;;;;;;;5078194;28;20040;-82
2024/01/19 03:14:49;;;;;;;23.13;11.80;;;;;;;;;;5078121;28;20106;-81
2024/01/19 03:17:16;;;;;;;17.02;9.65;;;;;;;;;;5078176;28;20053;-81
2024/01/19 03:19:44;;;;;;;20.83;9.95;;;;;;;;;;5078342;28;20075;-81
2024/01/19 03:22:11;;;;;;;19.10;9.35;;;;;;;;;;5079782;28;20048;-81
2024/01/19 03:24:39;;;;;;;20.67;9.10;;;;;;;;;;5078121;28;20490;-81
2024/01/19 03:27:06;;;;;;;19.98;8.60;;;;;;;;;;5078471;28;20118;-81
2024/01/19 03:29:34;;;;;;;19.00;9.00;;;;;;;;;;5078405;28;20045;-81
2024/01/19 03:32:01;;;;;;;15.45;8.82;;;;;;;;;;5079001;28;20048;-82
2024/01/19 03:34:28;;;;;;;20.17;9.50;;;;;;;;;;5078127;28;20549;-82
2024/01/19 03:36:55;;;;;;;19.95;9.95;;;;;;;;;;5078959;28;20048;-82
2024/01/19 03:39:23;;;;;;;21.80;10.38;;;;;;;;;;5079302;28;20052;-82
2024/01/19 03:41:50;;;;;;;16.90;9.18;;;;;;;;;;5080762;28;20112;-82
2024/01/19 03:44:18;;;;;;;16.48;9.57;;;;;;;;;;5060107;28;20072;-82
2024/01/19 03:46:45;;;;;;;17.00;9.88;;;;;;;;;;5074839;28;20051;-81
2024/01/19 03:49:12;;;;;;;12.45;7.85;;;;;;;;;;5078606;28;20081;-82
2024/01/19 03:51:56;;;;;;;14.20;8.55;;;;;;;;;;5079004;28;20048;-82
2024/01/19 03:54:24;;;;;;;16.05;9.00;;;;;;;;;;5079089;28;20052;-81
2024/01/19 03:56:51;;;;;;;14.05;8.50;;;;;;;;;;5079172;28;20075;-82
2024/01/19 03:59:18;;;;;;;13.93;7.80;;;;;;;;;;5079355;28;20052;-82
2024/01/19 04:01:45;;;;;;;16.77;8.70;;;;;;;;;;5079364;28;20048;-82
2024/01/19 04:04:13;;;;;;;15.70;8.40;;;;;;;;;;5079402;28;20053;-81
2024/01/19 04:06:40;;;;;;;20.48;9.35;;;;;;;;;;5078969;28;20414;-82
2024/01/19 04:09:07;;;;;;;16.27;8.75;;;;;;;;;;5079687;28;20124;-82
2024/01/19 04:11:36;;;;;;;16.60;8.55;;;;;;;;;;5082069;28;20094;-83
2024/01/19 04:14:03;;;;;;;11.00;7.45;;;;;;;;;;5085179;28;20144;-82
2024/01/19 04:16:31;;;;;;;15.48;8.45;;;;;;;;;;5083373;28;20087;-82
2024/01/19 04:18:58;;;;;;;15.18;7.78;;;;;;;;;;5082940;28;20079;-83
2024/01/19 04:21:25;;;;;;;14.45;8.05;;;;;;;;;;5083658;28;20052;-82
2024/01/19 04:23:53;;;;;;;12.70;6.93;;;;;;;;;;5085399;28;20079;-83
2024/01/19 04:26:20;;;;;;;13.93;7.88;;;;;;;;;;5084871;28;20055;-83
2024/01/19 04:28:48;;;;;;;12.15;7.15;;;;;;;;;;5084445;28;20083;-83
2024/01/19 04:31:16;;;;;;;21.35;9.18;;;;;;;;;;5083046;28;20049;-82
2024/01/19 04:33:43;;;;;;;14.48;8.55;;;;;;;;;;5085487;28;20379;-83
2024/01/19 04:36:10;;;;;;;14.52;7.50;;;;;;;;;;5083218;28;20517;-83
2024/01/19 04:38:38;;;;;;;15.27;8.40;;;;;;;;;;5083991;28;20048;-83
2024/01/19 04:41:05;;;;;;;17.70;9.85;;;;;;;;;;5083873;28;20074;-83
2024/01/19 04:43:32;;;;;;;17.83;9.20;;;;;;;;;;5085641;28;20482;-83
2024/01/19 04:46:00;;;;;;;16.40;8.88;;;;;;;;;;5083580;28;20074;-82
2024/01/19 04:48:27;;;;;;;18.38;9.40;;;;;;;;;;5083910;28;20078;-82
2024/01/19 04:50:54;;;;;;;18.85;8.77;;;;;;;;;;5084429;28;20490;-82
2024/01/19 04:53:21;;;;;;;14.23;8.73;;;;;;;;;;5084495;28;20040;-83
2024/01/19 04:55:49;;;;;;;20.50;9.50;;;;;;;;;;5084028;28;20070;-83
2024/01/19 04:58:16;;;;;;;15.63;9.27;;;;;;;;;;5085834;28;20052;-83
2024/01/19 05:00:43;;;;;;;16.58;8.05;;;;;;;;;;5081489;28;20054;-83
2024/01/19 05:03:12;;;;;;;18.15;8.60;;;;;;;;;;5080830;28;20110;-83
2024/01/19 05:05:39;;;;;;;17.00;9.30;;;;;;;;;;5080218;28;20074;-83
2024/01/19 05:08:06;;;;;;;17.65;10.05;;;;;;;;;;5082223;28;20475;-83
2024/01/19 05:10:34;;;;;;;19.27;8.77;;;;;;;;;;5081162;28;20048;-83
2024/01/19 05:13:03;;;;;;;17.70;9.38;;;;;;;;;;5080912;28;20414;-82
2024/01/19 05:15:30;;;;;;;28.10;14.07;;;;;;;;;;5081883;28;20110;-83
2024/01/19 05:17:57;;;;;;;34.83;17.10;;;;;;;;;;5081868;28;20044;-83
2024/01/19 05:20:25;;;;;;;26.80;13.73;;;;;;;;;;5079759;28;20056;-83
2024/01/19 05:22:52;;;;;;;34.95;17.80;;;;;;;;;;5079040;28;20052;-83
2024/01/19 05:25:19;;;;;;;29.60;15.55;;;;;;;;;;5078883;28;20052;-82
2024/01/19 05:27:50;;;;;;;35.60;18.10;;;;;;;;;;5078919;28;20098;-83
2024/01/19 05:30:18;;;;;;;52.85;24.27;;;;;;;;;;5072474;28;20041;-83
2024/01/19 05:32:45;;;;;;;59.33;31.27;;;;;;;;;;5078387;28;20410;-83
2024/01/19 05:35:13;;;;;;;46.17;22.05;;;;;;;;;;5078769;28;20182;-83
2024/01/19 05:37:40;;;;;;;37.95;20.80;;;;;;;;;;5080220;28;20501;-83
2024/01/19 05:40:08;;;;;;;40.40;21.85;;;;;;;;;;5078826;28;20517;-83
2024/01/19 05:42:35;;;;;;;29.25;16.70;;;;;;;;;;5079547;28;20524;-83
2024/01/19 05:45:03;;;;;;;31.42;17.17;;;;;;;;;;5079022;28;20075;-83
2024/01/19 05:47:31;;;;;;;27.50;14.65;;;;;;;;;;5078966;28;20044;-83
2024/01/19 05:49:58;;;;;;;21.20;12.48;;;;;;;;;;5078876;28;20044;-83
2024/01/19 05:52:25;;;;;;;20.50;12.02;;;;;;;;;;5078171;28;20040;-83
2024/01/19 05:54:53;;;;;;;16.67;9.68;;;;;;;;;;5078806;28;20102;-82
2024/01/19 05:57:20;;;;;;;17.23;9.02;;;;;;;;;;5078549;28;20049;-83
2024/01/19 05:59:48;;;;;;;14.65;8.60;;;;;;;;;;5079053;28;20044;-83
2024/01/19 06:02:15;;;;;;;17.63;8.68;;;;;;;;;;5078350;28;20052;-83
2024/01/19 06:04:42;;;;;;;19.48;8.80;;;;;;;;;;5078809;28;20044;-83
2024/01/19 06:07:09;;;;;;;16.55;8.68;;;;;;;;;;5078720;28;20045;-83
2024/01/19 06:09:37;;;;;;;16.52;8.07;;;;;;;;;;5079725;28;20047;-83
2024/01/19 06:12:05;;;;;;;20.73;10.23;;;;;;;;;;5078951;28;20098;-83
2024/01/19 06:14:33;;;;;;;20.42;10.43;;;;;;;;;;5078957;28;20048;-83
2024/01/19 06:17:02;;;;;;;22.58;9.68;;;;;;;;;;5077757;28;20085;-83
2024/01/19 06:19:29;;;;;;;17.02;9.15;;;;;;;;;;5078478;28;20048;-82
2024/01/19 06:21:56;;;;;;;19.92;8.35;;;;;;;;;;5078889;28;20128;-83
2024/01/19 06:24:25;;;;;;;16.38;7.82;;;;;;;;;;5078466;28;20052;-83
2024/01/19 06:26:52;;;;;;;15.27;7.72;;;;;;;;;;5078920;28;20048;-82
2024/01/19 06:29:20;;;;;;;12.57;7.43;;;;;;;;;;5076205;28;20041;-82
2024/01/19 06:31:48;;;;;;;18.63;8.35;;;;;;;;;;5076344;28;20044;-82
2024/01/19 06:34:15;;;;;;;15.15;7.88;;;;;;;;;;5075236;28;20516;-82
2024/01/19 06:36:44;;;;;;;17.85;7.53;;;;;;;;;;5075873;28;20040;-82
2024/01/19 06:39:12;;;;;;;17.50;8.45;;;;;;;;;;5077673;28;20555;-82
2024/01/19 06:41:45;;;;;;;15.05;8.13;;;;;;;;;;5076407;28;20048;-82
2024/01/19 06:44:13;;;;;;;21.77;9.88;;;;;;;;;;5075984;28;20086;-82
2024/01/19 06:46:46;;;;;;;26.33;10.93;;;;;;;;;;5076143;28;20105;-83
2024/01/19 06:49:14;;;;;;;28.33;11.70;;;;;;;;;;5075928;28;20131;-83
2024/01/19 06:51:42;;;;;;;33.70;12.52;;;;;;;;;;5076134;28;20060;-82
2024/01/19 06:54:10;;;;;;;28.88;11.32;;;;;;;;;;5077070;28;20051;-82
2024/01/19 06:56:37;;;;;;;23.67;10.07;;;;;;;;;;5075867;28;20102;-82
2024/01/19 06:59:05;;;;;;;26.23;10.07;;;;;;;;;;5075965;28;20058;-83
2024/01/19 07:01:34;;;;;;;27.58;9.18;;;;;;;;;;5077278;28;20052;-82
2024/01/19 07:04:02;;;;;;;20.23;8.82;;;;;;;;;;5074301;28;20095;-82
2024/01/19 07:06:31;;;;;;;20.05;8.45;;;;;;;;;;5076584;28;20048;-82
2024/01/19 07:08:58;;;;;;;25.90;9.68;;;;;;;;;;5067835;28;20106;-82
2024/01/19 07:11:25;;;;;;;20.77;8.65;;;;;;;;;;5077760;28;20463;-82
2024/01/19 07:13:53;;;;;;;30.70;10.07;;;;;;;;;;5075863;28;20055;-82
2024/01/19 07:16:20;;;;;;;22.63;9.35;;;;;;;;;;5076769;28;20045;-83
2024/01/19 07:18:47;;;;;;;29.13;11.05;;;;;;;;;;5076552;28;20052;-83
2024/01/19 07:21:16;;;;;;;21.30;9.93;;;;;;;;;;5075798;28;20048;-83
2024/01/19 07:23:43;;;;;;;25.52;10.10;;;;;;;;;;5076771;28;20401;-83
2024/01/19 07:26:11;;;;;;;22.65;10.32;;;;;;;;;;5076007;28;20052;-83
2024/01/19 07:28:39;;;;;;;22.08;9.98;;;;;;;;;;5075961;28;20102;-83
2024/01/19 07:31:06;;;;;;;18.13;8.52;;;;;;;;;;5075818;28;20085;-83
2024/01/19 07:33:33;;;;;;;14.75;7.75;;;;;;;;;;5076291;28;20056;-83
2024/01/19 07:36:02;;;;;;;21.35;8.73;;;;;;;;;;5076542;28;20055;-83
2024/01/19 07:38:29;;;;;;;18.65;8.82;;;;;;;;;;5075453;28;20093;-83
2024/01/19 07:40:57;;;;;;;13.15;7.63;;;;;;;;;;5077165;28;20087;-83
2024/01/19 07:43:24;;;;;;;13.23;8.13;;;;;;;;;;5077727;28;20056;-83
2024/01/19 07:45:51;;;;;;;15.45;8.02;;;;;;;;;;5078209;28;20059;-83
2024/01/19 07:48:19;;;;;;;17.40;8.38;;;;;;;;;;5077634;28;20449;-83
2024/01/19 07:50:46;;;;;;;18.83;8.45;;;;;;;;;;5070246;28;20491;-83
2024/01/19 07:53:13;;;;;;;18.73;8.40;;;;;;;;;;5076013;28;20070;-83
2024/01/19 07:55:41;;;;;;;13.15;7.15;;;;;;;;;;5076648;28;20102;-83
2024/01/19 07:58:08;;;;;;;18.50;8.45;;;;;;;;;;5077421;28;20104;-86
2024/01/19 08:00:36;;;;;;;17.55;8.25;;;;;;;;;;5079182;28;20052;-85
2024/01/19 08:03:08;;;;;;;15.63;7.82;;;;;;;;;;5080108;28;20049;-87
2024/01/19 08:05:35;;;;;;;14.03;6.30;;;;;;;;;;5081180;28;20116;-87
2024/01/19 08:08:03;;;;;;;16.27;7.20;;;;;;;;;;5080728;28;20055;-87
2024/01/19 08:10:34;;;;;;;17.38;8.60;;;;;;;;;;5078511;28;20076;-87
2024/01/19 08:13:02;;;;;;;15.82;8.20;;;;;;;;;;5075260;28;20486;-87
2024/01/19 08:15:33;;;;;;;18.92;9.90;;;;;;;;;;5078435;28;20053;-88
2024/01/19 08:18:00;;;;;;;24.40;11.38;;;;;;;;;;5075565;28;20506;-87
2024/01/19 08:20:28;;;;;;;23.77;10.55;;;;;;;;;;5073265;28;20084;-87
2024/01/19 08:22:55;;;;;;;20.05;10.25;;;;;;;;;;5074595;28;20114;-87
2024/01/19 08:25:23;;;;;;;25.27;11.15;;;;;;;;;;5073640;28;20056;-87
2024/01/19 08:27:50;;;;;;;24.40;13.73;;;;;;;;;;5073667;28;20048;-87
2024/01/19 08:30:19;;;;;;;28.48;13.20;;;;;;;;;;5065141;28;20051;-87
2024/01/19 08:32:46;;;;;;;27.92;12.43;;;;;;;;;;5073226;28;20108;-86
2024/01/19 08:35:13;;;;;;;29.85;14.55;;;;;;;;;;5074507;28;20502;-87
2024/01/19 08:37:42;;;;;;;25.55;14.02;;;;;;;;;;5073381;28;20110;-87
2024/01/19 08:40:10;;;;;;;29.05;13.85;;;;;;;;;;5073715;28;20099;-87
2024/01/19 08:42:37;;;;;;;25.20;12.10;;;;;;;;;;5073565;28;20414;-87
2024/01/19 08:45:05;;;;;;;24.80;11.77;;;;;;;;;;5073177;28;20056;-87
2024/01/19 08:47:32;;;;;;;22.73;12.52;;;;;;;;;;5068592;28;20134;-87
2024/01/19 08:50:00;;;;;;;26.05;12.52;;;;;;;;;;5071655;28;20094;-87
2024/01/19 08:52:30;;;;;;;31.75;13.43;;;;;;;;;;5072665;28;20048;-87
2024/01/19 08:54:58;;;;;;;30.50;13.55;;;;;;;;;;5073131;28;20041;-84
2024/01/19 08:57:25;;;;;;;38.40;16.23;;;;;;;;;;5076169;28;20045;-85
2024/01/19 08:59:52;;;;;;;32.42;16.25;;;;;;;;;;5076410;28;20044;-85
2024/01/19 09:02:20;;;;;;;38.03;16.15;;;;;;;;;;5077189;28;20053;-85
2024/01/19 09:04:50;;;;;;;32.72;15.55;;;;;;;;;;5076627;28;20056;-85
2024/01/19 09:07:18;;;;;;;34.92;15.77;;;;;;;;;;5076067;28;20054;-85
2024/01/19 09:09:49;;;;;;;32.33;15.30;;;;;;;;;;5076395;28;20088;-85
2024/01/19 09:12:16;;;;;;;39.58;15.20;;;;;;;;;;5067958;28;20055;-85
2024/01/19 09:14:43;;;;;;;33.90;14.80;;;;;;;;;;5075745;28;20045;-85
2024/01/19 09:17:10;;;;;;;29.52;14.73;;;;;;;;;;5075602;28;20067;-85
2024/01/19 09:19:38;;;;;;;36.33;14.77;;;;;;;;;;5075053;28;20056;-85
2024/01/19 09:22:06;;;;;;;26.13;13.75;;;;;;;;;;5075112;28;20055;-85
2024/01/19 09:24:34;;;;;;;29.15;12.60;;;;;;;;;;5074807;28;20045;-85
2024/01/19 09:27:01;;;;;;;21.63;11.98;;;;;;;;;;5074927;28;20059;-85
2024/01/19 09:29:28;;;;;;;21.88;11.10;;;;;;;;;;5074835;28;20486;-85
2024/01/19 09:31:55;;;;;;;23.42;11.27;;;;;;;;;;5074918;28;20048;-85
2024/01/19 09:34:24;;;;;;;20.42;10.35;;;;;;;;;;5074772;28;20106;-85
2024/01/19 09:36:51;;;;;;;27.13;11.90;;;;;;;;;;5077330;28;20049;-84
2024/01/19 09:39:21;;;;;;;30.73;12.05;;;;;;;;;;5071893;28;20155;-83
2024/01/19 09:41:52;;;;;;;31.52;12.05;;;;;;;;;;5080315;28;20048;-83
2024/01/19 09:44:20;;;;;;;28.67;13.35;;;;;;;;;;5079495;28;20048;-83
2024/01/19 09:46:48;;;;;;;40.10;13.68;;;;;;;;;;5080253;28;20106;-83
2024/01/19 09:49:35;;;;;;;29.15;11.48;;;;;;;;;;5079616;28;20050;-83
2024/01/19 09:52:03;;;;;;;34.45;10.75;;;;;;;;;;5079099;28;20048;-83
2024/01/19 09:54:32;;;;;;;35.58;11.82;;;;;;;;;;5078895;28;20048;-83
2024/01/19 09:57:03;;;;;;;41.22;12.07;;;;;;;;;;5078362;28;20055;-84
2024/01/19 09:59:31;;;;;;;50.83;14.18;;;;;;;;;;5078844;28;20051;-85
2024/01/19 10:01:59;;;;;;;48.95;15.82;;;;;;;;;;5074152;28;20048;-85
2024/01/19 10:04:27;;;;;;;46.25;14.77;;;;;;;;;;5074129;28;20086;-85
2024/01/19 10:06:55;;;;;;;41.28;13.73;;;;;;;;;;5074589;28;20419;-85
2024/01/19 10:09:23;;;;;;;45.10;14.57;;;;;;;;;;5072920;28;20048;-84
2024/01/19 10:11:51;;;;;;;39.65;13.02;;;;;;;;;;5074323;28;20048;-85
2024/01/19 10:14:19;;;;;;;23.98;11.27;;;;;;;;;;5066120;28;20079;-85
2024/01/19 10:16:50;;;;;;;26.15;12.02;;;;;;;;;;5075602;28;20060;-85
2024/01/19 10:19:21;;;;;;;25.85;12.48;;;;;;;;;;5074270;28;20044;-85
2024/01/19 10:21:52;;;;;;;32.13;14.75;;;;;;;;;;5073414;28;20079;-86
2024/01/19 10:24:20;;;;;;;25.88;15.90;;;;;;;;;;5065038;28;20053;-86
2024/01/19 10:26:55;;;;;;;33.22;15.15;;;;;;;;;;5073343;28;20048;-85
2024/01/19 10:29:23;;;;;;;20.02;11.80;;;;;;;;;;5065557;28;20391;-87
2024/01/19 10:31:52;;;;;;;22.42;11.13;;;;;;;;;;5073459;28;20045;-86
2024/01/19 10:34:21;;;;;;;18.25;9.00;;;;;;;;;;5074110;28;20056;-86
2024/01/19 10:36:49;;;;;;;15.68;7.88;;;;;;;;;;5073261;28;20140;-87
2024/01/19 10:39:16;;;;;;;18.38;7.72;;;;;;;;;;5074261;28;20048;-87
2024/01/19 10:41:44;;;;;;;16.05;8.02;;;;;;;;;;5069673;28;20136;-87
2024/01/19 10:44:12;;;;;;;30.67;13.43;;;;;;;;;;5073183;28;20135;-87
2024/01/19 10:46:40;;;;;;;16.73;7.70;;;;;;;;;;5072770;28;20102;-87
2024/01/19 10:49:10;;;;;;;16.23;7.97;;;;;;;;;;5073689;28;20559;-86
2024/01/19 10:51:39;;;;;;;15.00;7.65;;;;;;;;;;5072828;28;20052;-86
2024/01/19 10:54:10;;;;;;;11.68;6.30;;;;;;;;;;5072777;28;20413;-86
2024/01/19 10:56:38;;;;;;;12.27;7.60;;;;;;;;;;5072881;28;20049;-86
2024/01/19 10:59:13;;;;;;;12.18;7.70;;;;;;;;;;5072773;28;20048;-87
2024/01/19 11:01:40;;;;;;;16.40;7.85;;;;;;;;;;5072536;28;20052;-87
2024/01/19 11:04:08;;;;;;;12.95;7.40;;;;;;;;;;5072612;28;20468;-87
2024/01/19 11:06:36;;;;;;;10.40;6.82;;;;;;;;;;5072785;28;20514;-87
2024/01/19 11:09:07;;;;;;;14.30;7.68;;;;;;;;;;5072275;28;20044;-87
2024/01/19 11:11:40;;;;;;;12.55;8.10;;;;;;;;;;5072512;28;20132;-89
2024/01/19 11:14:08;;;;;;;18.98;9.95;;;;;;;;;;5071971;28;20498;-88
2024/01/19 11:16:44;;;;;;;11.65;7.70;;;;;;;;;;5072057;28;20071;-88
2024/01/19 11:19:12;;;;;;;13.82;7.35;;;;;;;;;;5071753;28;20044;-87
2024/01/19 11:21:41;;;;;;;10.80;7.35;;;;;;;;;;5072148;28;20501;-86
2024/01/19 11:24:08;;;;;;;14.27;7.82;;;;;;;;;;5073260;28;20048;-86
2024/01/19 11:26:41;;;;;;;12.27;8.57;;;;;;;;;;5072131;28;20048;-85
2024/01/19 11:29:22;;;;;;;12.40;9.25;;;;;;;;;;5072069;28;20486;-86
2024/01/19 11:31:50;;;;;;;13.25;8.10;;;;;;;;;;5073410;28;20041;-84
2024/01/19 11:34:36;;;;;;;21.02;10.13;;;;;;;;;;5072088;28;20539;-84
2024/01/19 11:37:04;;;;;;;15.38;8.98;;;;;;;;;;5071994;28;20051;-85
2024/01/19 11:39:40;;;;;;;16.30;10.30;;;;;;;;;;5071958;28;20098;-85
2024/01/19 11:42:07;;;;;;;12.95;9.40;;;;;;;;;;5073258;28;20056;-86
2024/01/19 11:44:41;;;;;;;11.43;7.18;;;;;;;;;;5071835;28;20133;-87
2024/01/19 11:47:08;;;;;;;11.30;6.22;;;;;;;;;;5071949;28;20052;-85
2024/01/19 11:49:37;;;;;;;10.05;5.97;;;;;;;;;;5073264;28;20052;-85
2024/01/19 11:52:20;;;;;;;7.53;5.47;;;;;;;;;;5074621;28;20044;-81
2024/01/19 11:54:47;;;;;;;7.37;5.03;;;;;;;;;;5074459;28;20426;-80
2024/01/19 11:57:25;;;;;;;8.38;5.18;;;;;;;;;;5073030;28;20099;-82
2024/01/19 11:59:53;;;;;;;7.38;5.28;;;;;;;;;;5071194;28;20048;-82
2024/01/19 12:02:27;;;;;;;7.57;5.47;;;;;;;;;;5074476;28;20052;-81
2024/01/19 12:04:56;;;;;;;9.75;6.22;;;;;;;;;;5074774;28;20056;-81
2024/01/19 12:07:23;;;;;;;10.63;6.72;;;;;;;;;;5075166;28;20056;-80
2024/01/19 12:10:06;;;;;;;13.10;6.05;;;;;;;;;;5074569;28;20050;-81
2024/01/19 12:12:34;;;;;;;8.75;5.60;;;;;;;;;;5068065;28;20127;-79
2024/01/19 12:15:03;;;;;;;10.35;6.18;;;;;;;;;;5073729;28;20051;-80
2024/01/19 12:17:30;;;;;;;9.13;6.20;;;;;;;;;;5074339;28;20441;-81
2024/01/19 12:19:58;;;;;;;11.70;6.82;;;;;;;;;;5074231;28;20052;-79
2024/01/19 12:22:26;;;;;;;10.30;6.05;;;;;;;;;;5074150;28;20048;-79
2024/01/19 12:25:12;;;;;;;10.13;5.50;;;;;;;;;;5074004;28;20056;-80
2024/01/19 12:27:39;;;;;;;8.60;5.32;;;;;;;;;;5075565;28;20067;-81
2024/01/19 12:30:14;;;;;;;12.88;5.72;;;;;;;;;;5074228;28;20552;-80
2024/01/19 12:32:41;;;;;;;16.00;5.80;;;;;;;;;;5076544;28;20044;-81
2024/01/19 12:35:08;;;;;;;8.93;5.43;;;;;;;;;;5077558;28;20053;-78
2024/01/19 12:37:35;;;;;;;9.57;5.72;;;;;;;;;;5079327;28;20131;-85
2024/01/19 12:40:13;;;;;;;8.60;5.15;;;;;;;;;;5082165;28;20521;-85
2024/01/19 12:42:41;;;;;;;9.40;5.20;;;;;;;;;;5084339;28;20051;-85
2024/01/19 12:45:09;;;;;;;9.18;5.82;;;;;;;;;;5082039;28;20086;-85
2024/01/19 12:47:41;;;;;;;11.40;5.78;;;;;;;;;;5084149;28;20052;-85
2024/01/19 12:50:09;;;;;;;10.65;6.05;;;;;;;;;;5083205;28;20076;-83
2024/01/19 12:52:46;;;;;;;9.98;5.20;;;;;;;;;;5075183;28;20055;-84
2024/01/19 12:55:14;;;;;;;8.05;5.03;;;;;;;;;;5082621;28;20101;-85
2024/01/19 12:57:49;;;;;;;8.18;5.47;;;;;;;;;;5084795;28;20044;-80
2024/01/19 13:00:18;;;;;;;19.90;6.28;;;;;;;;;;5080464;28;20114;-85
2024/01/19 13:02:46;;;;;;;7.07;5.50;;;;;;;;;;5083400;28;20109;-86
2024/01/19 13:05:20;;;;;;;9.43;5.38;;;;;;;;;;5081529;28;20052;-85
2024/01/19 13:07:48;;;;;;;10.88;5.55;;;;;;;;;;5079377;28;20551;-80
2024/01/19 13:10:15;;;;;;;6.90;5.22;;;;;;;;;;5078711;28;20123;-79
2024/01/19 13:12:43;;;;;;;10.60;5.00;;;;;;;;;;5078535;28;20498;-81
2024/01/19 13:15:12;;;;;;;12.45;5.68;;;;;;;;;;5077025;28;20053;-80
2024/01/19 13:17:42;;;;;;;8.80;5.57;;;;;;;;;;5070493;28;20131;-82
2024/01/19 13:20:11;;;;;;;14.50;6.47;;;;;;;;;;5077514;28;20053;-81
2024/01/19 13:22:40;;;;;;;12.15;6.15;;;;;;;;;;5077551;28;20052;-82
2024/01/19 13:25:08;;;;;;;11.43;6.57;;;;;;;;;;5077916;28;20110;-81
2024/01/19 13:27:35;;;;;;;9.00;5.85;;;;;;;;;;5078613;28;20091;-82
2024/01/19 13:30:03;;;;;;;13.25;6.38;;;;;;;;;;5077522;28;20055;-81
2024/01/19 13:32:30;;;;;;;10.07;5.72;;;;;;;;;;5077686;28;20549;-81
2024/01/19 13:34:58;;;;;;;12.73;6.75;;;;;;;;;;5077367;28;20044;-82
2024/01/19 13:37:25;;;;;;;8.48;6.00;;;;;;;;;;5077653;28;20059;-82
2024/01/19 13:39:54;;;;;;;11.82;6.63;;;;;;;;;;5070702;28;20059;-82
2024/01/19 13:42:23;;;;;;;15.75;6.85;;;;;;;;;;5077561;28;20144;-82
2024/01/19 13:44:50;;;;;;;10.85;6.07;;;;;;;;;;5077698;28;20109;-82
2024/01/19 13:47:17;;;;;;;12.43;6.63;;;;;;;;;;5077951;28;20094;-83
2024/01/19 13:49:44;;;;;;;12.95;6.57;;;;;;;;;;5078471;28;20048;-83
2024/01/19 13:52:12;;;;;;;20.73;6.75;;;;;;;;;;5078852;28;20051;-82
2024/01/19 13:54:39;;;;;;;9.32;5.90;;;;;;;;;;5078262;28;20048;-81
2024/01/19 13:57:06;;;;;;;11.20;6.50;;;;;;;;;;5076920;28;20045;-82
2024/01/19 13:59:33;;;;;;;11.95;6.55;;;;;;;;;;5077089;28;20051;-82
2024/01/19 14:02:01;;;;;;;17.30;6.55;;;;;;;;;;5076883;28;20082;-82
2024/01/19 14:04:30;;;;;;;12.57;7.00;;;;;;;;;;5076898;28;20331;-81
2024/01/19 14:06:57;;;;;;;9.57;6.15;;;;;;;;;;5076700;28;20064;-81
2024/01/19 14:09:25;;;;;;;11.10;6.55;;;;;;;;;;5076953;28;20044;-81
2024/01/19 14:11:52;;;;;;;13.20;6.70;;;;;;;;;;5077867;28;20045;-83
2024/01/19 14:14:20;;;;;;;14.32;6.35;;;;;;;;;;5061558;28;20495;-83
2024/01/19 14:16:47;;;;;;;16.70;7.22;;;;;;;;;;5076745;28;20056;-81
2024/01/19 14:19:15;;;;;;;11.30;6.18;;;;;;;;;;5075959;28;20473;-82
2024/01/19 14:21:42;;;;;;;10.18;5.80;;;;;;;;;;5075742;28;20064;-81
2024/01/19 14:24:09;;;;;;;13.88;6.13;;;;;;;;;;5077042;28;20057;-81
2024/01/19 14:26:36;;;;;;;13.27;5.90;;;;;;;;;;5077086;28;20053;-81
2024/01/19 14:29:05;;;;;;;11.90;6.20;;;;;;;;;;5075790;28;20044;-81
2024/01/19 14:31:32;;;;;;;7.68;5.35;;;;;;;;;;5076313;28;20135;-80